Virgen, Austria

6:22 PM CEST on July 28, 2016 (GMT +0200)
Praegraten am Grossvenediger | | Change Station

Elev 4446 ft 47.02 °N, 12.37 °E | Updated 35 seconds ago

Overcast
Overcast
62.3 °F
Feels Like 62.3 °F
N
1.0
Wind Variable Wind from WSW
Gusts 2.0 mph

Today
High -- | Low -- °F
--% Chance of Precip.
Yesterday
High -- | Low -- °F
Precip. -- in
Pressure 30.06 in
Visibility 18.6 miles
Clouds Mostly Cloudy 4000 ft
Mostly Cloudy 7000 ft
Dew Point 54 °F
Humidity 74%
Rainfall 0.01 in
Snow Depth Not available.
5:45 AM 8:47 PM
Waning Crescent, 31% visible
METAR LOWZ 281600Z VRB02KT 30KM -SHRA BKN040SC BKN070SC 20/15 Q1018 RMK OVC
Pressure 30.06 in
Visibility 18.6 miles
Clouds Mostly Cloudy 4000 ft
Mostly Cloudy 7000 ft
Dew Point 54 °F
Humidity 74%
Rainfall 0.01 in
Snow Depth Not available.
5:45 AM 8:47 PM
Waning Crescent, 31% visible
METAR LOWZ 281600Z VRB02KT 30KM -SHRA BKN040SC BKN070SC 20/15 Q1018 RMK OVC

10-Day Weather Forecast

×

Almanac

Astronomy

Jul. 28, 2016 Rise Set
Actual Time
Civil Twilight
Nautical Twilight
Astronomical Twilight
Moon
Length of Visible Light
Length of Day
Tomorrow will be .
, % of the Moon is Illuminated

Today's Extremes

Country Highs Country Lows

Community

WunderPhotos

Upload Photos

1,928,146 photos uploaded!

WunderBlog® & News

Nearby

Air Quality

  Air Quality AQ Index Pollutant
Not available.

Snow Depth

Station Depth Elevation

Earthquake Activity

City Distance Mag. Time & Date
Minimum magnitude displayed is 2.5.

Coastal Water Temperatures

Place Temperature

Stations

Nearby Weather Stations

Station Location Temp. Windchill Dew Point Humidity Wind Precip. Elev Updated Type